sensor_id;sensor_type;location;lat;lon;timestamp;P1;durP1;ratioP1;P2;durP2;ratioP2
57087;SDS011;42965;52.846;6.614;2024-01-15T00:02:00;18.45;;;3.15;;
57087;SDS011;42965;52.846;6.614;2024-01-15T00:04:27;13.95;;;2.05;;
57087;SDS011;42965;52.846;6.614;2024-01-15T00:06:54;13.68;;;2.40;;
57087;SDS011;42965;52.846;6.614;2024-01-15T00:09:20;12.52;;;2.30;;
57087;SDS011;42965;52.846;6.614;2024-01-15T00:11:46;17.17;;;2.92;;
57087;SDS011;42965;52.846;6.614;2024-01-15T00:14:12;17.85;;;4.05;;
57087;SDS011;42965;52.846;6.614;2024-01-15T00:16:41;17.45;;;2.97;;
57087;SDS011;42965;52.846;6.614;2024-01-15T00:19:07;15.63;;;2.95;;
57087;SDS011;42965;52.846;6.614;2024-01-15T00:21:34;10.75;;;2.58;;
57087;SDS011;42965;52.846;6.614;2024-01-15T00:24:01;13.48;;;3.47;;
57087;SDS011;42965;52.846;6.614;2024-01-15T00:26:28;12.90;;;2.67;;
57087;SDS011;42965;52.846;6.614;2024-01-15T00:28:54;13.52;;;2.35;;
57087;SDS011;42965;52.846;6.614;2024-01-15T00:31:20;16.45;;;2.35;;
57087;SDS011;42965;52.846;6.614;2024-01-15T00:33:48;15.18;;;2.28;;
57087;SDS011;42965;52.846;6.614;2024-01-15T00:36:14;11.75;;;2.05;;
57087;SDS011;42965;52.846;6.614;2024-01-15T00:38:43;16.95;;;2.63;;
57087;SDS011;42965;52.846;6.614;2024-01-15T00:41:10;17.00;;;2.85;;
57087;SDS011;42965;52.846;6.614;2024-01-15T00:43:36;13.55;;;1.90;;
57087;SDS011;42965;52.846;6.614;2024-01-15T00:46:03;11.93;;;1.88;;
57087;SDS011;42965;52.846;6.614;2024-01-15T00:48:30;10.32;;;2.25;;
57087;SDS011;42965;52.846;6.614;2024-01-15T00:50:56;10.63;;;2.28;;
57087;SDS011;42965;52.846;6.614;2024-01-15T00:53:22;12.10;;;2.47;;
57087;SDS011;42965;52.846;6.614;2024-01-15T00:55:49;11.75;;;2.35;;
57087;SDS011;42965;52.846;6.614;2024-01-15T00:58:15;10.27;;;2.20;;
57087;SDS011;42965;52.846;6.614;2024-01-15T01:00:42;11.95;;;2.40;;
57087;SDS011;42965;52.846;6.614;2024-01-15T01:03:08;17.25;;;2.58;;
57087;SDS011;42965;52.846;6.614;2024-01-15T01:05:35;11.93;;;2.08;;
57087;SDS011;42965;52.846;6.614;2024-01-15T01:08:01;15.05;;;2.72;;
57087;SDS011;42965;52.846;6.614;2024-01-15T01:10:28;18.63;;;2.30;;
57087;SDS011;42965;52.846;6.614;2024-01-15T01:13:14;12.77;;;2.67;;
57087;SDS011;42965;52.846;6.614;2024-01-15T01:15:41;12.90;;;2.15;;
57087;SDS011;42965;52.846;6.614;2024-01-15T01:18:08;14.50;;;2.83;;
57087;SDS011;42965;52.846;6.614;2024-01-15T01:20:34;10.68;;;3.03;;
57087;SDS011;42965;52.846;6.614;2024-01-15T01:23:01;11.68;;;2.13;;
57087;SDS011;42965;52.846;6.614;2024-01-15T01:25:29;10.05;;;2.20;;
57087;SDS011;42965;52.846;6.614;2024-01-15T01:27:55;9.98;;;2.28;;
57087;SDS011;42965;52.846;6.614;2024-01-15T01:30:21;11.93;;;2.30;;
57087;SDS011;42965;52.846;6.614;2024-01-15T01:32:47;13.82;;;2.78;;
57087;SDS011;42965;52.846;6.614;2024-01-15T01:35:14;15.93;;;3.03;;
57087;SDS011;42965;52.846;6.614;2024-01-15T01:37:40;17.13;;;2.90;;
57087;SDS011;42965;52.846;6.614;2024-01-15T01:40:07;15.02;;;2.30;;
57087;SDS011;42965;52.846;6.614;2024-01-15T01:42:37;10.32;;;1.77;;
57087;SDS011;42965;52.846;6.614;2024-01-15T01:45:09;7.65;;;1.30;;
57087;SDS011;42965;52.846;6.614;2024-01-15T01:47:37;7.15;;;1.17;;
57087;SDS011;42965;52.846;6.614;2024-01-15T01:50:04;5.85;;;1.30;;
57087;SDS011;42965;52.846;6.614;2024-01-15T01:52:31;6.63;;;1.27;;
57087;SDS011;42965;52.846;6.614;2024-01-15T01:54:58;2.30;;;0.82;;
57087;SDS011;42965;52.846;6.614;2024-01-15T01:57:27;5.40;;;0.77;;
57087;SDS011;42965;52.846;6.614;2024-01-15T01:59:55;4.35;;;0.80;;
57087;SDS011;42965;52.846;6.614;2024-01-15T02:02:22;5.25;;;1.90;;
57087;SDS011;42965;52.846;6.614;2024-01-15T02:04:49;8.23;;;1.17;;
57087;SDS011;42965;52.846;6.614;2024-01-15T02:07:35;6.22;;;0.85;;
57087;SDS011;42965;52.846;6.614;2024-01-15T02:10:02;4.15;;;0.98;;
57087;SDS011;42965;52.846;6.614;2024-01-15T02:12:29;5.93;;;1.02;;
57087;SDS011;42965;52.846;6.614;2024-01-15T02:14:56;5.38;;;0.82;;
57087;SDS011;42965;52.846;6.614;2024-01-15T02:17:22;5.18;;;1.45;;
57087;SDS011;42965;52.846;6.614;2024-01-15T02:19:49;6.55;;;1.48;;
57087;SDS011;42965;52.846;6.614;2024-01-15T02:22:15;7.43;;;1.25;;
57087;SDS011;42965;52.846;6.614;2024-01-15T02:24:41;15.23;;;2.78;;
57087;SDS011;42965;52.846;6.614;2024-01-15T02:27:08;11.40;;;2.33;;
57087;SDS011;42965;52.846;6.614;2024-01-15T02:29:35;9.77;;;1.58;;
57087;SDS011;42965;52.846;6.614;2024-01-15T02:32:05;10.82;;;1.85;;
57087;SDS011;42965;52.846;6.614;2024-01-15T02:37:41;14.15;;;2.13;;
57087;SDS011;42965;52.846;6.614;2024-01-15T02:40:08;13.07;;;2.03;;
57087;SDS011;42965;52.846;6.614;2024-01-15T02:42:34;9.40;;;1.60;;
57087;SDS011;42965;52.846;6.614;2024-01-15T02:45:21;9.45;;;1.73;;
57087;SDS011;42965;52.846;6.614;2024-01-15T02:47:49;10.25;;;1.92;;
57087;SDS011;42965;52.846;6.614;2024-01-15T02:50:15;10.25;;;2.75;;
57087;SDS011;42965;52.846;6.614;2024-01-15T02:52:42;5.65;;;1.20;;
57087;SDS011;42965;52.846;6.614;2024-01-15T02:55:08;7.78;;;1.50;;
57087;SDS011;42965;52.846;6.614;2024-01-15T02:57:34;9.70;;;1.33;;
57087;SDS011;42965;52.846;6.614;2024-01-15T03:00:01;10.98;;;2.15;;
57087;SDS011;42965;52.846;6.614;2024-01-15T03:02:28;9.55;;;1.55;;
57087;SDS011;42965;52.846;6.614;2024-01-15T03:04:57;13.07;;;2.00;;
57087;SDS011;42965;52.846;6.614;2024-01-15T03:07:23;9.18;;;1.45;;
57087;SDS011;42965;52.846;6.614;2024-01-15T03:09:50;9.70;;;1.90;;
57087;SDS011;42965;52.846;6.614;2024-01-15T03:12:16;18.65;;;2.53;;
57087;SDS011;42965;52.846;6.614;2024-01-15T03:14:43;15.95;;;2.50;;
57087;SDS011;42965;52.846;6.614;2024-01-15T03:17:10;13.90;;;1.80;;
57087;SDS011;42965;52.846;6.614;2024-01-15T03:19:38;13.18;;;1.73;;
57087;SDS011;42965;52.846;6.614;2024-01-15T03:22:24;11.30;;;1.83;;
57087;SDS011;42965;52.846;6.614;2024-01-15T03:24:50;18.15;;;2.28;;
57087;SDS011;42965;52.846;6.614;2024-01-15T03:27:18;13.05;;;1.95;;
57087;SDS011;42965;52.846;6.614;2024-01-15T03:29:44;15.38;;;2.75;;
57087;SDS011;42965;52.846;6.614;2024-01-15T03:32:11;12.10;;;1.98;;
57087;SDS011;42965;52.846;6.614;2024-01-15T03:34:37;7.25;;;1.70;;
57087;SDS011;42965;52.846;6.614;2024-01-15T03:37:04;10.52;;;2.10;;
57087;SDS011;42965;52.846;6.614;2024-01-15T03:39:31;10.30;;;1.77;;
57087;SDS011;42965;52.846;6.614;2024-01-15T03:41:57;9.85;;;2.17;;
57087;SDS011;42965;52.846;6.614;2024-01-15T03:44:24;10.15;;;1.73;;
57087;SDS011;42965;52.846;6.614;2024-01-15T03:46:50;9.60;;;2.22;;
57087;SDS011;42965;52.846;6.614;2024-01-15T03:49:17;12.63;;;2.00;;
57087;SDS011;42965;52.846;6.614;2024-01-15T03:51:46;12.32;;;2.20;;
57087;SDS011;42965;52.846;6.614;2024-01-15T03:54:14;8.02;;;1.90;;
57087;SDS011;42965;52.846;6.614;2024-01-15T03:56:40;8.60;;;1.25;;
57087;SDS011;42965;52.846;6.614;2024-01-15T03:59:07;9.10;;;1.38;;
57087;SDS011;42965;52.846;6.614;2024-01-15T04:01:33;7.13;;;1.50;;
57087;SDS011;42965;52.846;6.614;2024-01-15T04:04:00;8.75;;;1.80;;
57087;SDS011;42965;52.846;6.614;2024-01-15T04:06:26;12.73;;;1.77;;
57087;SDS011;42965;52.846;6.614;2024-01-15T04:08:52;6.85;;;1.70;;
57087;SDS011;42965;52.846;6.614;2024-01-15T04:11:19;10.35;;;1.80;;
57087;SDS011;42965;52.846;6.614;2024-01-15T04:13:46;10.38;;;1.80;;
57087;SDS011;42965;52.846;6.614;2024-01-15T04:16:12;8.68;;;2.00;;
57087;SDS011;42965;52.846;6.614;2024-01-15T04:18:38;8.60;;;1.75;;
57087;SDS011;42965;52.846;6.614;2024-01-15T04:21:05;17.67;;;2.00;;
57087;SDS011;42965;52.846;6.614;2024-01-15T04:23:32;7.28;;;2.00;;
57087;SDS011;42965;52.846;6.614;2024-01-15T04:25:59;10.90;;;2.35;;
57087;SDS011;42965;52.846;6.614;2024-01-15T04:28:26;11.52;;;2.30;;
57087;SDS011;42965;52.846;6.614;2024-01-15T04:30:55;9.77;;;1.55;;
57087;SDS011;42965;52.846;6.614;2024-01-15T04:33:22;11.80;;;2.03;;
57087;SDS011;42965;52.846;6.614;2024-01-15T04:35:48;12.10;;;2.42;;
57087;SDS011;42965;52.846;6.614;2024-01-15T04:38:15;12.63;;;2.30;;
57087;SDS011;42965;52.846;6.614;2024-01-15T04:40:43;10.57;;;1.70;;
57087;SDS011;42965;52.846;6.614;2024-01-15T04:43:10;10.77;;;2.47;;
57087;SDS011;42965;52.846;6.614;2024-01-15T04:45:37;13.63;;;2.25;;
57087;SDS011;42965;52.846;6.614;2024-01-15T04:48:04;12.65;;;2.20;;
57087;SDS011;42965;52.846;6.614;2024-01-15T04:50:51;13.98;;;2.33;;
57087;SDS011;42965;52.846;6.614;2024-01-15T04:53:17;11.20;;;2.15;;
57087;SDS011;42965;52.846;6.614;2024-01-15T04:55:43;14.30;;;2.42;;
57087;SDS011;42965;52.846;6.614;2024-01-15T04:58:10;17.55;;;3.20;;
57087;SDS011;42965;52.846;6.614;2024-01-15T05:00:36;10.90;;;1.95;;
57087;SDS011;42965;52.846;6.614;2024-01-15T05:03:22;14.55;;;2.70;;
57087;SDS011;42965;52.846;6.614;2024-01-15T05:05:49;13.65;;;1.95;;
57087;SDS011;42965;52.846;6.614;2024-01-15T05:08:15;7.65;;;1.98;;
57087;SDS011;42965;52.846;6.614;2024-01-15T05:10:41;8.15;;;2.17;;
57087;SDS011;42965;52.846;6.614;2024-01-15T05:13:07;13.65;;;1.92;;
57087;SDS011;42965;52.846;6.614;2024-01-15T05:15:33;12.00;;;2.20;;
57087;SDS011;42965;52.846;6.614;2024-01-15T05:18:00;10.82;;;1.95;;
57087;SDS011;42965;52.846;6.614;2024-01-15T05:20:46;10.35;;;1.80;;
57087;SDS011;42965;52.846;6.614;2024-01-15T05:23:14;10.63;;;1.95;;
57087;SDS011;42965;52.846;6.614;2024-01-15T05:25:40;10.10;;;2.13;;
57087;SDS011;42965;52.846;6.614;2024-01-15T05:28:06;8.13;;;1.67;;
57087;SDS011;42965;52.846;6.614;2024-01-15T05:30:33;10.15;;;1.90;;
57087;SDS011;42965;52.846;6.614;2024-01-15T05:32:59;8.45;;;1.65;;
57087;SDS011;42965;52.846;6.614;2024-01-15T05:35:26;11.20;;;2.35;;
57087;SDS011;42965;52.846;6.614;2024-01-15T05:37:52;12.30;;;2.05;;
57087;SDS011;42965;52.846;6.614;2024-01-15T05:40:19;11.57;;;1.95;;
57087;SDS011;42965;52.846;6.614;2024-01-15T05:42:45;15.18;;;2.58;;
57087;SDS011;42965;52.846;6.614;2024-01-15T05:45:11;14.68;;;2.65;;
57087;SDS011;42965;52.846;6.614;2024-01-15T05:47:37;9.90;;;2.58;;
57087;SDS011;42965;52.846;6.614;2024-01-15T05:50:24;13.13;;;2.45;;
57087;SDS011;42965;52.846;6.614;2024-01-15T05:52:51;13.70;;;2.00;;
57087;SDS011;42965;52.846;6.614;2024-01-15T05:55:17;13.93;;;1.95;;
57087;SDS011;42965;52.846;6.614;2024-01-15T05:57:44;13.77;;;2.38;;
57087;SDS011;42965;52.846;6.614;2024-01-15T06:00:30;15.85;;;2.20;;
57087;SDS011;42965;52.846;6.614;2024-01-15T06:02:58;12.68;;;2.72;;
57087;SDS011;42965;52.846;6.614;2024-01-15T06:05:25;16.23;;;3.05;;
57087;SDS011;42965;52.846;6.614;2024-01-15T06:07:51;11.02;;;2.15;;
57087;SDS011;42965;52.846;6.614;2024-01-15T06:10:17;10.85;;;2.53;;
57087;SDS011;42965;52.846;6.614;2024-01-15T06:12:43;14.48;;;2.38;;
57087;SDS011;42965;52.846;6.614;2024-01-15T06:15:10;11.52;;;2.05;;
57087;SDS011;42965;52.846;6.614;2024-01-15T06:17:36;13.30;;;2.92;;
57087;SDS011;42965;52.846;6.614;2024-01-15T06:20:03;13.57;;;2.60;;
57087;SDS011;42965;52.846;6.614;2024-01-15T06:22:30;15.15;;;2.65;;
57087;SDS011;42965;52.846;6.614;2024-01-15T06:24:56;11.38;;;2.22;;
57087;SDS011;42965;52.846;6.614;2024-01-15T06:27:22;14.93;;;2.95;;
57087;SDS011;42965;52.846;6.614;2024-01-15T06:29:48;15.77;;;2.20;;
57087;SDS011;42965;52.846;6.614;2024-01-15T06:32:14;14.60;;;2.38;;
57087;SDS011;42965;52.846;6.614;2024-01-15T06:34:41;16.70;;;2.40;;
57087;SDS011;42965;52.846;6.614;2024-01-15T06:37:07;14.50;;;2.50;;
57087;SDS011;42965;52.846;6.614;2024-01-15T06:39:34;14.95;;;2.80;;
57087;SDS011;42965;52.846;6.614;2024-01-15T06:42:00;14.27;;;2.17;;
57087;SDS011;42965;52.846;6.614;2024-01-15T06:44:26;12.27;;;2.17;;
57087;SDS011;42965;52.846;6.614;2024-01-15T06:46:53;9.25;;;2.03;;
57087;SDS011;42965;52.846;6.614;2024-01-15T06:49:23;13.40;;;2.20;;
57087;SDS011;42965;52.846;6.614;2024-01-15T06:51:49;18.35;;;2.65;;
57087;SDS011;42965;52.846;6.614;2024-01-15T06:54:16;13.65;;;2.28;;
57087;SDS011;42965;52.846;6.614;2024-01-15T06:56:42;11.05;;;2.42;;
57087;SDS011;42965;52.846;6.614;2024-01-15T06:59:08;11.30;;;1.90;;
57087;SDS011;42965;52.846;6.614;2024-01-15T07:01:34;16.85;;;2.90;;
57087;SDS011;42965;52.846;6.614;2024-01-15T07:04:01;16.63;;;2.50;;
57087;SDS011;42965;52.846;6.614;2024-01-15T07:06:27;16.13;;;3.10;;
57087;SDS011;42965;52.846;6.614;2024-01-15T07:08:53;11.25;;;2.67;;
57087;SDS011;42965;52.846;6.614;2024-01-15T07:11:19;13.85;;;2.50;;
57087;SDS011;42965;52.846;6.614;2024-01-15T07:13:46;15.02;;;2.53;;
57087;SDS011;42965;52.846;6.614;2024-01-15T07:16:12;16.83;;;2.40;;
57087;SDS011;42965;52.846;6.614;2024-01-15T07:18:38;14.52;;;2.30;;
57087;SDS011;42965;52.846;6.614;2024-01-15T07:21:05;9.88;;;2.00;;
57087;SDS011;42965;52.846;6.614;2024-01-15T07:23:31;11.32;;;2.25;;
57087;SDS011;42965;52.846;6.614;2024-01-15T07:25:57;15.48;;;2.45;;
57087;SDS011;42965;52.846;6.614;2024-01-15T07:28:24;15.38;;;2.75;;
57087;SDS011;42965;52.846;6.614;2024-01-15T07:30:50;12.63;;;2.42;;
57087;SDS011;42965;52.846;6.614;2024-01-15T07:33:17;10.50;;;2.17;;
57087;SDS011;42965;52.846;6.614;2024-01-15T07:35:44;16.40;;;2.42;;
57087;SDS011;42965;52.846;6.614;2024-01-15T07:38:10;12.73;;;2.60;;
57087;SDS011;42965;52.846;6.614;2024-01-15T07:40:37;15.10;;;2.33;;
57087;SDS011;42965;52.846;6.614;2024-01-15T07:43:03;11.52;;;2.20;;
57087;SDS011;42965;52.846;6.614;2024-01-15T07:45:30;12.50;;;2.33;;
57087;SDS011;42965;52.846;6.614;2024-01-15T07:47:56;14.75;;;2.45;;
57087;SDS011;42965;52.846;6.614;2024-01-15T07:50:24;14.32;;;2.17;;
57087;SDS011;42965;52.846;6.614;2024-01-15T07:52:50;15.25;;;2.15;;
57087;SDS011;42965;52.846;6.614;2024-01-15T07:55:17;10.43;;;2.45;;
57087;SDS011;42965;52.846;6.614;2024-01-15T07:57:43;14.85;;;2.97;;
57087;SDS011;42965;52.846;6.614;2024-01-15T08:00:12;15.88;;;2.40;;
57087;SDS011;42965;52.846;6.614;2024-01-15T08:02:39;17.63;;;2.60;;
57087;SDS011;42965;52.846;6.614;2024-01-15T08:05:06;12.30;;;2.10;;
57087;SDS011;42965;52.846;6.614;2024-01-15T08:07:36;17.20;;;3.03;;
57087;SDS011;42965;52.846;6.614;2024-01-15T08:10:02;10.95;;;2.28;;
57087;SDS011;42965;52.846;6.614;2024-01-15T08:12:28;17.42;;;2.53;;
57087;SDS011;42965;52.846;6.614;2024-01-15T08:14:55;14.25;;;2.45;;
57087;SDS011;42965;52.846;6.614;2024-01-15T08:17:21;16.30;;;2.30;;
57087;SDS011;42965;52.846;6.614;2024-01-15T08:19:47;12.57;;;2.70;;
57087;SDS011;42965;52.846;6.614;2024-01-15T08:22:33;13.93;;;2.10;;
57087;SDS011;42965;52.846;6.614;2024-01-15T08:25:00;16.27;;;2.25;;
57087;SDS011;42965;52.846;6.614;2024-01-15T08:27:26;10.30;;;2.20;;
57087;SDS011;42965;52.846;6.614;2024-01-15T08:29:53;7.35;;;1.83;;
57087;SDS011;42965;52.846;6.614;2024-01-15T08:32:19;10.52;;;2.10;;
57087;SDS011;42965;52.846;6.614;2024-01-15T08:34:46;14.57;;;2.88;;
57087;SDS011;42965;52.846;6.614;2024-01-15T08:37:14;11.85;;;3.28;;
57087;SDS011;42965;52.846;6.614;2024-01-15T08:39:40;8.60;;;2.15;;
57087;SDS011;42965;52.846;6.614;2024-01-15T08:42:07;10.23;;;2.05;;
57087;SDS011;42965;52.846;6.614;2024-01-15T08:44:33;13.68;;;2.47;;
57087;SDS011;42965;52.846;6.614;2024-01-15T08:46:59;9.20;;;2.00;;
57087;SDS011;42965;52.846;6.614;2024-01-15T08:49:25;13.13;;;2.30;;
57087;SDS011;42965;52.846;6.614;2024-01-15T08:51:52;11.85;;;3.08;;
57087;SDS011;42965;52.846;6.614;2024-01-15T08:54:18;8.77;;;2.78;;
57087;SDS011;42965;52.846;6.614;2024-01-15T08:56:45;13.00;;;2.00;;
57087;SDS011;42965;52.846;6.614;2024-01-15T08:59:11;14.30;;;2.38;;
57087;SDS011;42965;52.846;6.614;2024-01-15T09:01:38;9.82;;;2.30;;
57087;SDS011;42965;52.846;6.614;2024-01-15T09:04:04;14.13;;;2.80;;
57087;SDS011;42965;52.846;6.614;2024-01-15T09:06:31;13.60;;;3.38;;
57087;SDS011;42965;52.846;6.614;2024-01-15T09:08:57;16.83;;;2.85;;
57087;SDS011;42965;52.846;6.614;2024-01-15T09:11:44;13.18;;;2.60;;
57087;SDS011;42965;52.846;6.614;2024-01-15T09:14:11;16.20;;;2.25;;
57087;SDS011;42965;52.846;6.614;2024-01-15T09:16:37;11.20;;;2.40;;
57087;SDS011;42965;52.846;6.614;2024-01-15T09:19:04;14.43;;;2.63;;
57087;SDS011;42965;52.846;6.614;2024-01-15T09:21:30;13.27;;;2.28;;
57087;SDS011;42965;52.846;6.614;2024-01-15T09:23:56;16.50;;;2.42;;
57087;SDS011;42965;52.846;6.614;2024-01-15T09:26:24;13.23;;;2.58;;
57087;SDS011;42965;52.846;6.614;2024-01-15T09:28:50;7.93;;;1.90;;
57087;SDS011;42965;52.846;6.614;2024-01-15T09:31:17;15.63;;;2.35;;
57087;SDS011;42965;52.846;6.614;2024-01-15T09:33:45;11.63;;;2.20;;
57087;SDS011;42965;52.846;6.614;2024-01-15T09:36:11;12.48;;;2.70;;
57087;SDS011;42965;52.846;6.614;2024-01-15T09:38:39;13.93;;;2.63;;
57087;SDS011;42965;52.846;6.614;2024-01-15T09:41:07;9.63;;;2.30;;
57087;SDS011;42965;52.846;6.614;2024-01-15T09:43:33;16.20;;;2.67;;
57087;SDS011;42965;52.846;6.614;2024-01-15T09:46:00;9.18;;;1.90;;
57087;SDS011;42965;52.846;6.614;2024-01-15T09:48:27;7.45;;;1.80;;
57087;SDS011;42965;52.846;6.614;2024-01-15T09:50:53;12.27;;;2.60;;
57087;SDS011;42965;52.846;6.614;2024-01-15T09:53:19;10.38;;;2.60;;
57087;SDS011;42965;52.846;6.614;2024-01-15T09:55:46;8.88;;;1.63;;
57087;SDS011;42965;52.846;6.614;2024-01-15T09:58:16;8.93;;;2.30;;
57087;SDS011;42965;52.846;6.614;2024-01-15T10:00:43;9.38;;;2.45;;
57087;SDS011;42965;52.846;6.614;2024-01-15T10:03:10;10.77;;;2.17;;
57087;SDS011;42965;52.846;6.614;2024-01-15T10:05:37;10.77;;;2.75;;
57087;SDS011;42965;52.846;6.614;2024-01-15T10:08:04;11.95;;;2.13;;
57087;SDS011;42965;52.846;6.614;2024-01-15T10:10:31;8.27;;;1.95;;
57087;SDS011;42965;52.846;6.614;2024-01-15T10:12:58;11.48;;;2.78;;
57087;SDS011;42965;52.846;6.614;2024-01-15T10:15:25;6.38;;;1.90;;
57087;SDS011;42965;52.846;6.614;2024-01-15T10:17:52;13.63;;;2.28;;
57087;SDS011;42965;52.846;6.614;2024-01-15T10:20:18;13.77;;;2.47;;
57087;SDS011;42965;52.846;6.614;2024-01-15T10:22:47;13.25;;;2.03;;
57087;SDS011;42965;52.846;6.614;2024-01-15T10:25:15;9.35;;;2.25;;
57087;SDS011;42965;52.846;6.614;2024-01-15T10:27:42;10.40;;;2.20;;
57087;SDS011;42965;52.846;6.614;2024-01-15T10:30:09;12.90;;;2.72;;
57087;SDS011;42965;52.846;6.614;2024-01-15T10:32:35;11.55;;;1.75;;
57087;SDS011;42965;52.846;6.614;2024-01-15T10:35:02;9.00;;;1.85;;
57087;SDS011;42965;52.846;6.614;2024-01-15T10:37:32;6.55;;;1.40;;
57087;SDS011;42965;52.846;6.614;2024-01-15T10:40:02;7.90;;;1.50;;
57087;SDS011;42965;52.846;6.614;2024-01-15T10:42:32;7.07;;;1.52;;
57087;SDS011;42965;52.846;6.614;2024-01-15T10:44:58;5.65;;;1.20;;
57087;SDS011;42965;52.846;6.614;2024-01-15T10:47:24;8.77;;;2.03;;
57087;SDS011;42965;52.846;6.614;2024-01-15T10:50:11;9.65;;;2.33;;
57087;SDS011;42965;52.846;6.614;2024-01-15T10:52:38;6.72;;;1.55;;
57087;SDS011;42965;52.846;6.614;2024-01-15T10:55:09;7.47;;;1.23;;
57087;SDS011;42965;52.846;6.614;2024-01-15T10:57:36;9.48;;;1.70;;
57087;SDS011;42965;52.846;6.614;2024-01-15T11:00:04;9.60;;;1.85;;
57087;SDS011;42965;52.846;6.614;2024-01-15T11:02:32;11.43;;;1.65;;
57087;SDS011;42965;52.846;6.614;2024-01-15T11:05:00;11.20;;;1.88;;
57087;SDS011;42965;52.846;6.614;2024-01-15T11:07:26;8.63;;;1.48;;
57087;SDS011;42965;52.846;6.614;2024-01-15T11:09:55;8.00;;;1.23;;
57087;SDS011;42965;52.846;6.614;2024-01-15T11:12:23;8.55;;;1.42;;
57087;SDS011;42965;52.846;6.614;2024-01-15T11:14:50;6.63;;;2.08;;
57087;SDS011;42965;52.846;6.614;2024-01-15T11:17:17;5.63;;;0.88;;
57087;SDS011;42965;52.846;6.614;2024-01-15T11:19:45;4.47;;;0.80;;
57087;SDS011;42965;52.846;6.614;2024-01-15T11:25:18;5.70;;;1.10;;
57087;SDS011;42965;52.846;6.614;2024-01-15T11:27:46;4.78;;;0.98;;
57087;SDS011;42965;52.846;6.614;2024-01-15T11:30:17;3.42;;;0.95;;
57087;SDS011;42965;52.846;6.614;2024-01-15T11:33:05;2.72;;;1.83;;
57087;SDS011;42965;52.846;6.614;2024-01-15T11:35:53;2.92;;;0.80;;
57087;SDS011;42965;52.846;6.614;2024-01-15T11:38:28;3.13;;;0.80;;
57087;SDS011;42965;52.846;6.614;2024-01-15T11:40:55;4.03;;;1.05;;
57087;SDS011;42965;52.846;6.614;2024-01-15T11:43:21;6.85;;;1.10;;
57087;SDS011;42965;52.846;6.614;2024-01-15T11:45:49;6.78;;;1.33;;
57087;SDS011;42965;52.846;6.614;2024-01-15T11:48:18;3.08;;;1.10;;
57087;SDS011;42965;52.846;6.614;2024-01-15T11:50:45;9.25;;;1.48;;
57087;SDS011;42965;52.846;6.614;2024-01-15T11:55:44;5.18;;;0.90;;
57087;SDS011;42965;52.846;6.614;2024-01-15T11:58:11;8.60;;;1.92;;
57087;SDS011;42965;52.846;6.614;2024-01-15T12:00:58;5.13;;;0.98;;
57087;SDS011;42965;52.846;6.614;2024-01-15T12:03:25;7.82;;;2.35;;
57087;SDS011;42965;52.846;6.614;2024-01-15T12:05:52;8.73;;;1.20;;
57087;SDS011;42965;52.846;6.614;2024-01-15T12:08:22;5.00;;;1.27;;
57087;SDS011;42965;52.846;6.614;2024-01-15T12:10:48;8.38;;;1.20;;
57087;SDS011;42965;52.846;6.614;2024-01-15T12:13:15;5.90;;;1.35;;
57087;SDS011;42965;52.846;6.614;2024-01-15T12:15:43;5.32;;;0.85;;
57087;SDS011;42965;52.846;6.614;2024-01-15T12:18:12;2.47;;;0.85;;
57087;SDS011;42965;52.846;6.614;2024-01-15T12:20:40;4.75;;;1.05;;
57087;SDS011;42965;52.846;6.614;2024-01-15T12:23:08;2.33;;;0.80;;
57087;SDS011;42965;52.846;6.614;2024-01-15T12:25:35;2.95;;;1.15;;
57087;SDS011;42965;52.846;6.614;2024-01-15T12:28:03;5.65;;;1.30;;
57087;SDS011;42965;52.846;6.614;2024-01-15T12:30:30;6.00;;;1.17;;
57087;SDS011;42965;52.846;6.614;2024-01-15T12:33:05;1.63;;;0.85;;
57087;SDS011;42965;52.846;6.614;2024-01-15T12:35:35;2.85;;;0.80;;
57087;SDS011;42965;52.846;6.614;2024-01-15T12:38:01;6.75;;;0.90;;
57087;SDS011;42965;52.846;6.614;2024-01-15T12:40:28;4.97;;;1.20;;
57087;SDS011;42965;52.846;6.614;2024-01-15T12:42:55;3.75;;;1.38;;
57087;SDS011;42965;52.846;6.614;2024-01-15T12:45:21;8.35;;;1.23;;
57087;SDS011;42965;52.846;6.614;2024-01-15T12:47:47;6.72;;;1.42;;
57087;SDS011;42965;52.846;6.614;2024-01-15T12:50:34;5.57;;;0.93;;
57087;SDS011;42965;52.846;6.614;2024-01-15T12:53:01;4.15;;;1.20;;
57087;SDS011;42965;52.846;6.614;2024-01-15T12:55:28;2.47;;;0.85;;
57087;SDS011;42965;52.846;6.614;2024-01-15T12:57:54;4.72;;;1.25;;
57087;SDS011;42965;52.846;6.614;2024-01-15T13:00:40;6.10;;;1.08;;
57087;SDS011;42965;52.846;6.614;2024-01-15T13:03:07;3.47;;;1.08;;
57087;SDS011;42965;52.846;6.614;2024-01-15T13:05:34;4.53;;;1.30;;
57087;SDS011;42965;52.846;6.614;2024-01-15T13:08:02;8.40;;;1.30;;
57087;SDS011;42965;52.846;6.614;2024-01-15T13:10:29;6.18;;;1.50;;
57087;SDS011;42965;52.846;6.614;2024-01-15T13:12:55;7.78;;;1.27;;
57087;SDS011;42965;52.846;6.614;2024-01-15T13:15:22;6.75;;;1.50;;
57087;SDS011;42965;52.846;6.614;2024-01-15T13:17:48;8.90;;;2.47;;
57087;SDS011;42965;52.846;6.614;2024-01-15T13:20:14;6.63;;;1.25;;
57087;SDS011;42965;52.846;6.614;2024-01-15T13:22:40;8.98;;;1.60;;
57087;SDS011;42965;52.846;6.614;2024-01-15T13:25:10;7.90;;;1.40;;
57087;SDS011;42965;52.846;6.614;2024-01-15T13:27:37;9.95;;;1.80;;
57087;SDS011;42965;52.846;6.614;2024-01-15T13:30:06;4.53;;;1.05;;
57087;SDS011;42965;52.846;6.614;2024-01-15T13:32:33;5.20;;;1.30;;
57087;SDS011;42965;52.846;6.614;2024-01-15T13:34:59;6.43;;;1.45;;
57087;SDS011;42965;52.846;6.614;2024-01-15T13:37:26;5.60;;;1.33;;
57087;SDS011;42965;52.846;6.614;2024-01-15T13:39:52;6.93;;;1.20;;
57087;SDS011;42965;52.846;6.614;2024-01-15T13:42:39;6.72;;;1.60;;
57087;SDS011;42965;52.846;6.614;2024-01-15T13:45:06;6.95;;;1.27;;
57087;SDS011;42965;52.846;6.614;2024-01-15T13:47:33;7.32;;;1.65;;
57087;SDS011;42965;52.846;6.614;2024-01-15T13:49:59;8.82;;;1.38;;
57087;SDS011;42965;52.846;6.614;2024-01-15T13:52:25;8.07;;;1.80;;
57087;SDS011;42965;52.846;6.614;2024-01-15T13:54:53;6.30;;;1.60;;
57087;SDS011;42965;52.846;6.614;2024-01-15T13:57:19;7.53;;;2.28;;
57087;SDS011;42965;52.846;6.614;2024-01-15T13:59:46;7.85;;;1.33;;
57087;SDS011;42965;52.846;6.614;2024-01-15T14:02:15;4.50;;;1.10;;
57087;SDS011;42965;52.846;6.614;2024-01-15T14:04:42;9.82;;;1.90;;
57087;SDS011;42965;52.846;6.614;2024-01-15T14:07:09;9.13;;;1.90;;
57087;SDS011;42965;52.846;6.614;2024-01-15T14:09:35;5.68;;;1.88;;
57087;SDS011;42965;52.846;6.614;2024-01-15T14:12:03;8.98;;;1.95;;
57087;SDS011;42965;52.846;6.614;2024-01-15T14:14:29;6.38;;;1.40;;
57087;SDS011;42965;52.846;6.614;2024-01-15T14:16:56;8.48;;;1.75;;
57087;SDS011;42965;52.846;6.614;2024-01-15T14:19:22;8.70;;;1.85;;
57087;SDS011;42965;52.846;6.614;2024-01-15T14:21:48;10.43;;;1.95;;
57087;SDS011;42965;52.846;6.614;2024-01-15T14:24:14;10.23;;;2.17;;
57087;SDS011;42965;52.846;6.614;2024-01-15T14:26:41;7.25;;;1.92;;
57087;SDS011;42965;52.846;6.614;2024-01-15T14:29:08;9.45;;;2.00;;
57087;SDS011;42965;52.846;6.614;2024-01-15T14:31:34;6.90;;;1.90;;
57087;SDS011;42965;52.846;6.614;2024-01-15T14:34:01;7.95;;;1.70;;
57087;SDS011;42965;52.846;6.614;2024-01-15T14:36:28;12.52;;;2.10;;
57087;SDS011;42965;52.846;6.614;2024-01-15T14:38:55;11.02;;;2.53;;
57087;SDS011;42965;52.846;6.614;2024-01-15T14:41:21;9.55;;;1.80;;
57087;SDS011;42965;52.846;6.614;2024-01-15T14:43:47;11.95;;;2.38;;
57087;SDS011;42965;52.846;6.614;2024-01-15T14:46:14;11.63;;;3.40;;
57087;SDS011;42965;52.846;6.614;2024-01-15T14:49:00;12.65;;;2.35;;
57087;SDS011;42965;52.846;6.614;2024-01-15T14:51:28;10.10;;;1.95;;
57087;SDS011;42965;52.846;6.614;2024-01-15T14:54:14;11.68;;;2.60;;